Time;durP1;ratioP1;P1;durP2;ratioP2;P2;SDS_P1;SDS_P2;PMS_P1;PMS_P2;Temp;Humidity;BMP_temperature;BMP_pressure;BME280_temperature;BME280_humidity;BME280_pressure;Samples;Min_cycle;Max_cycle;Signal;HPM_P1;HPM_P2
2022/01/25 00:10:00;;;;;;;36.58;17.25;;;-6.60;52.50;;;-6.69;95.34;100250.81;5056665;27;115902;-70
2022/01/25 00:15:27;;;;;;;35.45;16.83;;;-6.60;48.20;;;-6.65;94.52;100250.47;5063677;27;130085;-70
2022/01/25 00:26:21;;;;;;;35.45;16.58;;;-6.50;44.50;;;-6.58;93.81;100225.00;5062382;27;129711;-71
2022/01/25 00:29:03;;;;;;;38.05;17.33;;;-6.50;46.30;;;-6.81;94.52;100219.78;5065665;27;119119;-70
2022/01/25 00:31:34;;;;;;;37.22;16.70;;;-6.60;43.40;;;-6.67;94.79;100211.03;5064478;27;115616;-71
2022/01/25 00:34:03;;;;;;;41.40;18.52;;;-6.50;45.30;;;-6.57;94.29;100210.78;5063741;27;129988;-71
2022/01/25 00:36:32;;;;;;;29.13;15.23;;;-6.50;44.30;;;-6.61;93.58;100205.03;5060860;27;129542;-71
2022/01/25 00:39:01;;;;;;;32.33;15.80;;;-6.50;42.10;;;-6.58;93.41;100196.75;5065485;27;119311;-70
2022/01/25 00:41:30;;;;;;;35.50;16.50;;;-6.50;42.30;;;-6.72;94.55;100198.38;5065115;27;116332;-70
2022/01/25 00:44:01;;;;;;;29.45;14.40;;;-6.50;42.20;;;-6.62;93.98;100198.13;5060851;27;130280;-71
2022/01/25 00:46:31;;;;;;;37.78;16.85;;;-6.50;44.00;;;-6.71;94.28;100196.59;5061759;27;130163;-71
2022/01/25 00:49:02;;;;;;;37.13;18.13;;;-6.50;43.50;;;-6.75;94.83;100184.72;5064285;27;118864;-71
2022/01/25 00:54:31;;;;;;;35.42;17.48;;;-6.50;43.90;;;-6.94;94.99;100180.81;5052395;27;130528;-71
2022/01/25 00:57:02;;;;;;;32.35;15.80;;;-6.60;43.50;;;-6.62;94.98;100179.66;5061559;27;129654;-70
2022/01/25 00:59:32;;;;;;;37.72;17.23;;;-6.50;46.00;;;-6.58;94.25;100172.97;5062676;27;119038;-70
2022/01/25 01:02:06;;;;;;;34.45;16.17;;;-6.40;44.90;;;-6.81;94.31;100173.06;5064579;27;115692;-70
2022/01/25 01:04:34;;;;;;;32.35;16.42;;;-6.50;40.80;;;-6.79;94.70;100165.81;5059547;27;130063;-70
2022/01/25 01:07:07;;;;;;;35.95;15.75;;;-6.50;41.60;;;-6.75;94.73;100167.06;5064745;27;129292;-71
2022/01/25 01:09:39;;;;;;;31.58;16.45;;;-6.50;41.40;;;-6.54;94.54;100174.28;5062686;27;118858;-70
2022/01/25 01:12:18;;;;;;;35.40;17.88;;;-6.50;43.50;;;-6.46;93.60;100168.06;5062482;27;116409;-70
2022/01/25 01:15:04;;;;;;;34.55;16.45;;;-6.40;43.70;;;-6.56;94.14;100154.31;5061822;27;130282;-70
2022/01/25 01:31:49;;;;;;;32.07;15.37;;;-6.50;44.90;;;-6.71;94.62;100141.13;5064250;27;118466;-70
2022/01/25 01:43:13;;;;;;;37.25;16.58;;;-6.40;49.50;;;-6.79;95.91;100120.09;5064985;27;119605;-70
2022/01/25 01:45:53;;;;;;;31.25;16.02;;;-6.40;47.60;;;-6.80;96.35;100115.84;5063426;27;115829;-70
2022/01/25 01:48:29;;;;;;;32.33;16.15;;;-6.40;48.80;;;-6.63;95.48;100116.47;5062111;27;130318;-71
2022/01/25 01:51:05;;;;;;;35.33;17.00;;;-6.40;49.80;;;-6.77;95.56;100115.47;5064917;27;130257;-70
2022/01/25 01:53:34;;;;;;;34.85;16.85;;;-6.40;49.50;;;-6.82;96.69;100118.66;5067447;27;119588;-70
2022/01/25 01:56:04;;;;;;;39.47;16.75;;;-6.40;50.60;;;-6.61;96.68;100106.53;5064992;27;116281;-70
2022/01/25 01:58:37;;;;;;;32.60;16.38;;;-6.40;52.50;;;-6.25;95.11;100103.91;5067784;27;129546;-70
2022/01/25 02:01:11;;;;;;;33.28;16.55;;;-6.30;55.00;;;-6.28;94.20;100101.63;5063986;27;130400;-70
2022/01/25 02:03:41;;;;;;;36.97;16.73;;;-6.30;52.90;;;-6.25;94.48;100098.59;5066754;27;119011;-70
2022/01/25 02:06:10;;;;;;;34.38;16.90;;;-6.30;54.20;;;-6.56;95.38;100099.69;5067616;27;115817;-71
2022/01/25 02:08:39;;;;;;;40.35;17.85;;;-6.40;52.60;;;-6.48;95.09;100082.09;5067885;27;130516;-70
2022/01/25 02:11:08;;;;;;;41.20;17.77;;;-6.40;55.70;;;-6.53;95.93;100086.13;5063670;27;130421;-70
2022/01/25 02:13:40;;;;;;;36.72;18.55;;;-6.30;57.10;;;-6.47;96.17;100084.56;5064926;27;118802;-70
2022/01/25 02:16:17;;;;;;;39.92;17.92;;;-6.30;58.20;;;-6.47;96.08;100083.75;5066052;27;116000;-69
2022/01/25 02:24:20;;;;;;;38.90;16.63;;;-6.30;61.80;;;-6.21;95.37;100075.28;5065265;27;118934;-70
2022/01/25 02:26:50;;;;;;;39.55;18.38;;;-6.20;62.20;;;-6.19;95.65;100066.16;5064267;27;115899;-70
2022/01/25 02:29:19;;;;;;;37.22;17.35;;;-6.20;62.80;;;-6.34;96.29;100057.50;5064654;27;129497;-70
2022/01/25 02:31:49;;;;;;;35.15;17.13;;;-6.30;63.10;;;-6.54;97.12;100052.00;5064598;27;130057;-70
2022/01/25 02:34:17;;;;;;;41.78;18.45;;;-6.30;65.30;;;-6.80;98.11;100048.00;5063333;27;118703;-70
2022/01/25 02:36:55;;;;;;;35.40;16.70;;;-6.30;64.20;;;-6.72;98.32;100049.72;5065488;27;115946;-70
2022/01/25 02:39:24;;;;;;;37.58;17.88;;;-6.30;67.60;;;-6.40;97.59;100047.66;5064295;27;130548;-70
2022/01/25 02:41:53;;;;;;;37.30;17.42;;;-6.30;71.00;;;-6.36;97.39;100041.00;5067034;27;130302;-70
2022/01/25 02:44:25;;;;;;;39.55;17.88;;;-6.20;71.60;;;-6.56;97.99;100033.69;5067219;27;118763;-70
2022/01/25 02:49:41;;;;;;;37.35;17.13;;;-6.30;74.30;;;-6.61;98.47;100024.69;5063169;27;129765;-70
2022/01/25 02:52:11;;;;;;;43.05;17.98;;;-6.30;76.20;;;-6.68;99.48;100024.59;5065977;27;129513;-70
2022/01/25 02:54:41;;;;;;;45.85;19.15;;;-6.30;76.80;;;-6.70;99.46;100023.94;5064308;27;119743;-70
2022/01/25 02:57:09;;;;;;;43.10;19.30;;;-6.30;80.40;;;-6.55;99.59;100008.09;5066114;27;115922;-70
2022/01/25 02:59:38;;;;;;;44.78;18.60;;;-6.20;81.60;;;-6.69;100.00;100007.13;5064944;27;130171;-70
2022/01/25 03:02:07;;;;;;;36.83;17.70;;;-6.30;84.00;;;-6.71;100.00;100003.88;5065462;27;130273;-70
2022/01/25 03:04:36;;;;;;;40.05;19.33;;;-6.30;86.90;;;-6.65;100.00;99997.84;5066161;27;118337;-70
2022/01/25 03:07:06;;;;;;;36.10;17.80;;;-6.20;89.00;;;-6.58;100.00;99988.16;5065350;27;115847;-70
2022/01/25 03:09:36;;;;;;;40.53;18.45;;;-6.20;90.70;;;-6.62;100.00;99996.63;5063858;27;130633;-70
2022/01/25 03:12:08;;;;;;;36.30;18.55;;;-6.20;91.30;;;-6.62;100.00;99986.91;5066237;27;129948;-70
2022/01/25 03:14:47;;;;;;;40.75;17.73;;;-6.20;91.10;;;-6.73;100.00;99990.00;5064193;27;118724;-70
2022/01/25 03:17:24;;;;;;;42.67;20.52;;;-6.20;91.90;;;-6.58;100.00;99980.22;5064073;27;115823;-69
2022/01/25 03:20:03;;;;;;;47.70;19.77;;;-6.20;93.30;;;-6.49;100.00;99964.28;5066576;27;130018;-70
2022/01/25 03:22:54;;;;;;;40.70;19.55;;;-6.10;92.90;;;-6.61;100.00;99962.13;5064466;27;129714;-70
2022/01/25 03:25:27;;;;;;;42.30;19.25;;;-6.20;93.40;;;-6.45;100.00;99961.06;5065954;27;118256;-70
2022/01/25 03:27:57;;;;;;;44.63;18.77;;;-6.10;94.60;;;-6.54;100.00;99963.00;5064162;27;115794;-70
2022/01/25 03:30:27;;;;;;;44.97;20.00;;;-6.10;95.40;;;-6.60;100.00;99952.38;5064118;27;129911;-70
2022/01/25 03:32:55;;;;;;;56.60;20.70;;;-6.10;95.90;;;-6.43;100.00;99958.25;5063407;27;130242;-70
2022/01/25 03:35:24;;;;;;;53.75;21.83;;;-6.00;97.00;;;-6.30;100.00;99953.06;5065573;27;118890;-70
2022/01/25 03:37:52;;;;;;;46.70;20.60;;;-6.00;97.00;;;-6.24;100.00;99947.03;5061826;27;115635;-70
2022/01/25 03:40:21;;;;;;;50.95;21.98;;;-6.00;97.70;;;-6.35;100.00;99936.97;5062602;27;129742;-70
2022/01/25 03:42:51;;;;;;;47.90;20.30;;;-6.00;98.50;;;-6.36;100.00;99935.31;5063360;27;129897;-69
2022/01/25 03:45:22;;;;;;;50.55;20.92;;;-6.00;98.40;;;-6.36;100.00;99938.81;5063377;27;119206;-69
2022/01/25 03:48:00;;;;;;;52.90;22.25;;;-6.00;98.90;;;-6.41;100.00;99943.00;5063719;27;116623;-69
2022/01/25 03:50:28;;;;;;;57.25;21.90;;;-6.00;99.60;;;-6.42;100.00;99929.00;5062629;27;129984;-69
2022/01/25 03:52:57;;;;;;;58.70;22.52;;;-6.00;99.90;;;-6.47;100.00;99923.44;5062587;27;129480;-70
2022/01/25 03:55:25;;;;;;;50.10;21.50;;;-6.00;99.90;;;-6.12;100.00;99925.34;5064616;27;117681;-69
2022/01/25 03:57:55;;;;;;;48.65;19.98;;;-5.90;99.90;;;-6.29;100.00;99915.09;5063788;27;116052;-70
2022/01/25 04:00:24;;;;;;;54.22;23.20;;;-5.90;99.90;;;-6.22;100.00;99929.16;5058966;27;129962;-69
2022/01/25 04:02:57;;;;;;;54.25;22.95;;;-5.90;99.90;;;-6.29;100.00;99922.16;5064580;27;129575;-69
2022/01/25 04:05:35;;;;;;;53.67;22.90;;;-5.90;99.90;;;-6.31;100.00;99914.44;5062665;27;119225;-69
2022/01/25 04:08:06;;;;;;;48.13;21.40;;;-5.90;99.90;;;-6.35;100.00;99907.91;5053302;27;115960;-69
2022/01/25 04:10:35;;;;;;;49.90;22.00;;;-5.90;99.90;;;-6.46;100.00;99903.97;5022958;28;129774;-69
2022/01/25 04:13:05;;;;;;;55.97;23.15;;;-5.90;99.90;;;-6.58;100.00;99890.44;5021386;28;130615;-69
2022/01/25 04:15:34;;;;;;;52.17;22.48;;;-5.90;99.90;;;-6.60;100.00;99879.25;5024001;28;118732;-70
2022/01/25 04:18:18;;;;;;;53.35;22.52;;;-5.90;99.90;;;-6.52;100.00;99887.03;5021996;28;115643;-70
2022/01/25 04:20:57;;;;;;;56.53;22.27;;;-5.90;99.90;;;-6.51;100.00;99878.13;5024401;28;130126;-70
2022/01/25 04:26:12;;;;;;;60.67;23.95;;;-5.80;99.90;;;-6.34;100.00;99872.59;5022861;28;119237;-69
2022/01/25 04:28:41;;;;;;;59.80;23.60;;;-5.80;99.90;;;-6.27;100.00;99868.16;5026029;28;116430;-70
2022/01/25 04:31:10;;;;;;;54.92;23.60;;;-5.80;99.90;;;-6.13;100.00;99863.78;5022152;28;129908;-69
2022/01/25 04:33:44;;;;;;;54.55;24.05;;;-5.70;99.90;;;-5.90;100.00;99871.41;5022433;28;130671;-69
2022/01/25 04:36:51;;;;;;;49.60;22.33;;;-5.70;99.90;;;-5.90;100.00;99871.41;5024779;28;118838;-71
2022/01/25 04:50:45;;;;;;;59.60;25.00;;;-5.50;99.90;;;-5.64;100.00;99867.25;5022440;28;115807;-70
2022/01/25 04:53:20;;;;;;;57.33;23.40;;;-5.50;99.90;;;-5.77;100.00;99860.91;5024713;28;131478;-72
2022/01/25 04:55:55;;;;;;;53.85;23.92;;;-5.50;99.90;;;-5.77;100.00;99858.25;5022286;28;129894;-71
2022/01/25 04:58:31;;;;;;;54.63;24.13;;;-5.60;99.90;;;-5.76;100.00;99853.81;5006907;28;118258;-68
2022/01/25 05:01:01;;;;;;;56.08;23.67;;;-5.50;99.90;;;-5.74;100.00;99853.59;5023680;28;115701;-67
2022/01/25 05:03:44;;;;;;;56.45;24.48;;;-5.50;99.90;;;-5.92;100.00;99849.66;5021814;28;130179;-68
2022/01/25 05:06:15;;;;;;;53.47;24.35;;;-5.50;99.90;;;-5.99;100.00;99854.09;5024559;28;130219;-69
2022/01/25 05:08:48;;;;;;;56.08;25.63;;;-5.60;99.90;;;-5.96;100.00;99843.13;5007424;28;118335;-68
2022/01/25 05:11:24;;;;;;;56.08;24.58;;;-5.50;99.90;;;-5.95;100.00;99839.47;5021879;28;115599;-68
2022/01/25 05:13:59;;;;;;;51.67;24.38;;;-5.50;99.90;;;-6.07;100.00;99839.22;5021377;28;129869;-68
2022/01/25 05:16:31;;;;;;;57.83;25.13;;;-5.60;99.90;;;-6.01;100.00;99835.00;5021525;28;129829;-67
2022/01/25 05:19:10;;;;;;;53.22;23.35;;;-5.50;99.90;;;-5.90;100.00;99831.75;5022151;28;119331;-68
2022/01/25 05:24:24;;;;;;;56.45;25.02;;;-5.40;99.90;;;-5.65;100.00;99823.34;5024086;28;130536;-68
2022/01/25 05:26:53;;;;;;;53.40;25.88;;;-5.40;99.90;;;-5.67;100.00;99818.25;5024890;28;130795;-68
2022/01/25 05:29:21;;;;;;;52.75;25.15;;;-5.40;99.90;;;-5.65;100.00;99818.06;5026042;28;118884;-68
2022/01/25 05:31:51;;;;;;;54.85;23.88;;;-5.40;99.90;;;-5.62;100.00;99822.94;5028712;27;115527;-68
2022/01/25 05:34:20;;;;;;;50.90;23.42;;;-5.40;99.90;;;-5.64;100.00;99824.94;5024734;28;130037;-68
2022/01/25 05:36:48;;;;;;;55.13;23.88;;;-5.30;99.90;;;-5.47;100.00;99818.31;5025460;28;130402;-67
2022/01/25 05:39:21;;;;;;;50.20;24.05;;;-5.30;99.90;;;-5.50;100.00;99816.06;5025428;28;119426;-67
2022/01/25 05:41:56;;;;;;;59.00;25.00;;;-5.30;99.90;;;-5.58;100.00;99813.59;5026330;28;116416;-70
2022/01/25 05:44:38;;;;;;;58.50;24.38;;;-5.30;99.90;;;-5.58;100.00;99813.59;5024777;28;130938;-71
2022/01/25 05:47:13;;;;;;;68.18;26.20;;;-5.20;99.90;;;-5.68;100.00;99807.88;5024333;28;129836;-71
2022/01/25 05:49:43;;;;;;;54.22;24.58;;;-5.30;99.90;;;-5.73;100.00;99794.41;5025283;28;120297;-70
2022/01/25 05:52:12;;;;;;;54.42;23.73;;;-5.30;99.90;;;-5.55;100.00;99794.69;5025737;28;115767;-70
2022/01/25 05:54:42;;;;;;;60.00;24.83;;;-5.20;99.90;;;-5.56;100.00;99789.59;5026351;28;130894;-70
2022/01/25 05:57:11;;;;;;;58.38;23.35;;;-5.20;99.90;;;-5.59;100.00;99790.81;5024332;28;129839;-70
2022/01/25 05:59:40;;;;;;;54.50;25.50;;;-5.20;99.90;;;-5.57;100.00;99786.13;5024586;28;119315;-70
2022/01/25 06:02:09;;;;;;;54.42;22.63;;;-5.20;99.90;;;-5.38;100.00;99796.97;5026541;28;114924;-70
2022/01/25 06:04:38;;;;;;;53.15;24.13;;;-5.20;99.90;;;-5.32;100.00;99796.19;5025006;28;129670;-71
2022/01/25 06:07:06;;;;;;;59.92;24.73;;;-5.10;99.90;;;-5.19;100.00;99790.91;5025177;28;129607;-70
2022/01/25 06:09:35;;;;;;;53.42;26.05;;;-5.10;99.90;;;-5.20;100.00;99789.28;5009820;28;117869;-70
2022/01/25 06:12:04;;;;;;;55.53;24.17;;;-5.10;99.90;;;-5.26;100.00;99795.38;5024480;28;115939;-70
2022/01/25 06:14:33;;;;;;;77.88;27.17;;;-5.10;99.90;;;-5.26;100.00;99790.09;5024250;28;129688;-70
2022/01/25 06:17:01;;;;;;;56.13;26.67;;;-5.10;99.90;;;-5.24;100.00;99788.03;5025732;28;129389;-70
2022/01/25 06:19:31;;;;;;;57.40;26.17;;;-5.00;99.90;;;-5.21;100.00;99786.84;5024212;28;119160;-70
2022/01/25 06:21:59;;;;;;;58.50;24.60;;;-5.10;99.90;;;-5.42;100.00;99778.84;5025900;27;116221;-70
2022/01/25 06:24:28;;;;;;;59.83;26.30;;;-5.10;99.90;;;-5.13;100.00;99774.22;5026029;28;129593;-69
2022/01/25 06:26:57;;;;;;;58.22;26.55;;;-5.00;99.90;;;-5.10;100.00;99783.59;5026032;28;129693;-70
2022/01/25 06:29:25;;;;;;;60.83;26.80;;;-5.00;99.90;;;-5.38;100.00;99781.09;5026181;28;117628;-70
2022/01/25 06:31:54;;;;;;;51.90;25.38;;;-5.10;99.90;;;-5.58;100.00;99783.69;5024357;28;115922;-70
2022/01/25 06:34:23;;;;;;;59.55;25.02;;;-5.10;99.90;;;-5.31;100.00;99787.22;5022257;28;129888;-71
2022/01/25 06:36:53;;;;;;;55.90;26.63;;;-5.00;99.90;;;-5.18;100.00;99781.13;5022952;28;129615;-71
2022/01/25 06:39:22;;;;;;;62.88;26.95;;;-5.00;99.90;;;-4.90;100.00;99762.44;5025516;28;119378;-70
2022/01/25 06:41:50;;;;;;;62.00;25.52;;;-4.90;99.90;;;-4.57;100.00;99766.88;5025941;28;115490;-71
2022/01/25 06:44:19;;;;;;;72.80;26.42;;;-4.80;99.90;;;-4.71;100.00;99771.38;5022577;28;130696;-71
2022/01/25 06:46:47;;;;;;;62.38;26.73;;;-4.80;99.90;;;-4.67;100.00;99772.63;5023650;28;128969;-71
2022/01/25 06:49:16;;;;;;;65.75;27.13;;;-4.70;99.90;;;-4.61;100.00;99765.66;5024555;28;119041;-71
2022/01/25 06:51:45;;;;;;;66.10;27.80;;;-4.70;99.90;;;-4.80;100.00;99752.25;5023330;28;116231;-71
2022/01/25 06:54:15;;;;;;;67.75;27.20;;;-4.80;99.90;;;-4.61;100.00;99755.06;5023255;28;129972;-71
2022/01/25 06:56:43;;;;;;;68.18;28.55;;;-4.80;99.90;;;-4.51;100.00;99760.78;5023752;28;129697;-71
2022/01/25 06:59:12;;;;;;;68.15;27.60;;;-4.70;99.90;;;-4.81;100.00;99755.91;5023923;28;118863;-70
2022/01/25 07:01:40;;;;;;;63.42;27.17;;;-4.70;99.90;;;-4.89;100.00;99753.47;5024475;28;117143;-71
2022/01/25 07:04:09;;;;;;;61.85;24.50;;;-4.70;99.90;;;-4.91;100.00;99745.75;5026266;28;130282;-71
2022/01/25 07:06:38;;;;;;;56.83;27.08;;;-4.70;99.90;;;-4.77;100.00;99740.41;5023194;28;130583;-71
2022/01/25 07:09:08;;;;;;;59.30;27.48;;;-4.70;99.90;;;-4.76;100.00;99742.88;5023108;28;119068;-71
2022/01/25 07:11:38;;;;;;;59.53;26.17;;;-4.70;99.90;;;-4.63;100.00;99746.53;5023871;28;115969;-70
2022/01/25 07:14:07;;;;;;;59.03;27.10;;;-4.60;99.90;;;-4.48;99.83;99743.66;5023109;28;130609;-70
2022/01/25 07:16:36;;;;;;;57.60;26.85;;;-4.60;99.90;;;-4.43;99.64;99742.00;5024984;28;130093;-70
2022/01/25 07:19:05;;;;;;;57.35;26.00;;;-4.60;99.90;;;-4.47;99.45;99735.50;5026079;28;118674;-71
2022/01/25 07:21:33;;;;;;;57.22;25.30;;;-4.60;99.90;;;-4.48;99.84;99728.56;5026254;28;116093;-70
2022/01/25 07:24:01;;;;;;;59.42;26.13;;;-4.50;99.90;;;-4.59;100.00;99726.56;5024867;28;128666;-71
2022/01/25 07:26:30;;;;;;;56.38;26.35;;;-4.50;99.90;;;-4.48;100.00;99720.63;5022961;28;129747;-71
2022/01/25 07:29:00;;;;;;;62.03;28.42;;;-4.50;99.50;;;-4.41;99.89;99712.66;5024926;28;118810;-70
2022/01/25 07:31:29;;;;;;;64.22;29.25;;;-4.40;98.60;;;-4.39;98.83;99703.47;5023345;28;115843;-72
2022/01/25 07:33:57;;;;;;;58.92;27.63;;;-4.30;96.20;;;-4.04;98.60;99708.44;5025459;28;130139;-71
2022/01/25 07:36:26;;;;;;;59.83;27.02;;;-4.30;96.30;;;-3.98;97.42;99709.44;5023393;28;130090;-71
2022/01/25 07:38:54;;;;;;;65.25;26.38;;;-4.20;93.50;;;-3.75;97.41;99703.63;5023387;28;118784;-71
2022/01/25 07:41:23;;;;;;;70.32;31.95;;;-4.10;93.40;;;-3.33;95.88;99703.19;5023685;28;115593;-70
2022/01/25 07:43:51;;;;;;;52.60;25.65;;;-3.90;93.90;;;-3.10;94.24;99695.44;5024767;28;130665;-70
2022/01/25 07:46:21;;;;;;;57.58;26.80;;;-3.80;89.70;;;-3.10;93.87;99686.63;5021441;28;129802;-70
2022/01/25 07:48:50;;;;;;;54.42;25.30;;;-3.80;81.40;;;-3.12;93.49;99696.66;5023715;28;118967;-70
2022/01/25 07:51:19;;;;;;;55.78;27.30;;;-3.70;73.80;;;-2.80;92.52;99693.97;5023001;28;116054;-71
2022/01/25 07:53:48;;;;;;;58.65;27.25;;;-3.60;73.60;;;-2.75;91.88;99689.59;5020956;27;129854;-70
2022/01/25 07:56:16;;;;;;;50.88;24.77;;;-3.60;69.30;;;-2.35;90.62;99685.72;5024521;28;129917;-71
2022/01/25 07:58:45;;;;;;;53.90;26.85;;;-3.40;67.80;;;-2.65;90.11;99686.47;5022713;28;118807;-70
2022/01/25 08:01:14;;;;;;;55.13;25.45;;;-3.40;56.30;;;-2.61;90.79;99674.34;5022887;28;115829;-70
2022/01/25 08:03:45;;;;;;;53.72;26.90;;;-3.40;53.80;;;-2.32;89.79;99677.31;5022416;28;129620;-70
2022/01/25 08:06:14;;;;;;;52.53;25.80;;;-3.30;53.70;;;-1.94;89.26;99684.19;5024226;28;129792;-71
2022/01/25 08:08:43;;;;;;;47.67;24.75;;;-3.10;53.00;;;-1.64;87.36;99678.06;5023503;28;118617;-71
2022/01/25 08:11:12;;;;;;;48.67;25.67;;;-3.00;45.20;;;-1.20;85.91;99667.16;5025210;28;116158;-71
2022/01/25 08:13:47;;;;;;;57.80;27.45;;;-2.70;43.90;;;-0.71;84.67;99677.63;5024846;28;130046;-71
2022/01/25 08:16:16;;;;;;;52.65;26.10;;;-2.50;42.40;;;-0.71;83.75;99674.97;5022086;28;129601;-70
2022/01/25 08:18:46;;;;;;;51.80;26.40;;;-2.40;31.50;;;-0.73;83.15;99673.34;5022492;28;119746;-71
2022/01/25 08:21:14;;;;;;;54.40;27.50;;;-2.40;29.40;;;-1.30;84.00;99670.41;5022710;28;116389;-70
2022/01/25 08:23:43;;;;;;;49.70;25.85;;;-2.60;27.00;;;-0.95;84.01;99658.94;5022074;28;130404;-70
2022/01/25 08:26:11;;;;;;;52.85;26.92;;;-2.60;35.00;;;-1.46;84.49;99654.03;5024970;28;130683;-70
2022/01/25 08:28:39;;;;;;;52.25;28.63;;;-2.60;26.10;;;-1.56;85.49;99651.13;5023007;28;118988;-71
2022/01/25 08:31:08;;;;;;;54.72;27.15;;;-2.80;32.40;;;-1.87;87.12;99652.19;5022283;28;115900;-69
2022/01/25 08:33:37;;;;;;;58.92;29.67;;;-2.90;32.80;;;-1.99;87.82;99647.63;5023566;28;130110;-69
2022/01/25 08:36:07;;;;;;;56.17;28.60;;;-2.90;36.90;;;-1.85;87.59;99645.59;5021732;28;129921;-70
2022/01/25 08:38:36;;;;;;;52.45;27.05;;;-2.90;38.50;;;-1.53;87.26;99653.31;5023851;28;119596;-70
2022/01/25 08:41:06;;;;;;;48.58;26.17;;;-2.70;35.70;;;-0.94;84.56;99647.25;5023176;28;115953;-71
2022/01/25 08:43:35;;;;;;;48.50;25.85;;;-2.30;30.10;;;-0.83;82.90;99645.63;5021631;28;130271;-70
2022/01/25 08:46:04;;;;;;;52.75;28.10;;;-2.10;21.90;;;-0.52;82.94;99647.09;5022989;28;129903;-71
2022/01/25 08:48:33;;;;;;;48.53;27.63;;;-2.10;24.30;;;0.18;80.81;99642.59;5023252;28;119142;-70
2022/01/25 08:51:02;;;;;;;56.38;28.88;;;-1.80;24.30;;;-0.12;80.69;99635.66;5020698;28;115939;-70
2022/01/25 08:53:32;;;;;;;59.25;29.13;;;-1.80;15.80;;;0.16;79.97;99629.50;5021648;28;130363;-71
2022/01/25 08:56:00;;;;;;;53.58;28.40;;;-1.70;20.90;;;0.28;79.56;99632.13;5021552;28;130543;-71
2022/01/25 08:58:29;;;;;;;58.05;27.88;;;-1.70;17.40;;;0.53;78.62;99634.41;5021496;28;118847;-71
2022/01/25 09:00:58;;;;;;;60.60;28.38;;;-1.60;19.80;;;0.61;78.56;99633.19;5021902;28;115615;-71
2022/01/25 09:03:27;;;;;;;52.20;26.77;;;-1.50;17.40;;;0.44;78.17;99621.72;5024559;28;130076;-71
2022/01/25 09:05:55;;;;;;;46.58;24.83;;;-1.60;15.20;;;0.44;78.21;99621.72;5021605;28;129917;-70
2022/01/25 09:08:27;;;;;;;46.65;26.35;;;-1.50;15.20;;;0.50;78.32;99605.50;5021853;28;118851;-71
2022/01/25 09:11:00;;;;;;;52.45;25.05;;;-1.40;18.50;;;0.46;78.91;99598.22;5021874;28;115709;-70
2022/01/25 09:13:30;;;;;;;51.88;26.65;;;-1.40;16.10;;;0.31;79.53;99588.94;5024632;28;131818;-70
2022/01/25 09:15:59;;;;;;;51.05;25.65;;;-1.40;16.20;;;0.16;79.86;99589.47;5021478;28;130540;-71
2022/01/25 09:18:29;;;;;;;52.80;27.30;;;-1.60;18.50;;;0.28;80.02;99591.25;5022287;28;118761;-70
2022/01/25 09:20:57;;;;;;;45.97;25.23;;;-1.60;21.40;;;0.74;79.35;99593.88;5022866;28;115932;-70
2022/01/25 09:23:26;;;;;;;51.65;28.17;;;-1.30;20.70;;;0.90;78.14;99587.69;5022912;28;130019;-71
2022/01/25 09:25:56;;;;;;;55.17;27.40;;;-1.20;18.60;;;0.82;78.30;99591.56;5023440;28;129676;-71
2022/01/25 09:28:25;;;;;;;62.28;29.38;;;-1.20;16.30;;;0.57;78.86;99586.66;5021366;28;119101;-70
2022/01/25 09:30:54;;;;;;;54.42;28.48;;;-1.50;20.50;;;0.80;78.53;99583.00;5022405;28;116032;-70
2022/01/25 09:33:27;;;;;;;54.53;28.77;;;-1.30;22.50;;;0.81;78.96;99583.78;5020068;28;129828;-70
2022/01/25 09:35:58;;;;;;;55.95;28.58;;;-1.20;23.40;;;0.97;78.61;99584.84;5005303;28;128832;-71
2022/01/25 09:38:27;;;;;;;58.17;27.35;;;-1.10;20.40;;;1.04;78.15;99580.94;5021099;28;118858;-71
2022/01/25 09:40:57;;;;;;;50.38;27.77;;;-1.10;18.30;;;1.13;78.06;99586.66;5023941;28;115765;-71
2022/01/25 09:43:28;;;;;;;54.30;27.83;;;-1.00;18.80;;;1.08;77.31;99595.41;5020804;28;129926;-70
2022/01/25 09:45:56;;;;;;;54.85;28.30;;;-1.00;14.60;;;0.98;78.75;99595.28;5005877;28;129337;-71
2022/01/25 09:48:25;;;;;;;60.70;26.90;;;-1.00;19.50;;;0.77;78.66;99593.38;5023360;28;119390;-70
2022/01/25 09:50:56;;;;;;;63.90;27.67;;;-1.10;15.70;;;0.61;78.48;99595.81;5023679;28;115803;-70
2022/01/25 09:53:25;;;;;;;55.83;28.55;;;-1.20;17.60;;;0.75;78.61;99592.78;5019721;28;129795;-70
2022/01/25 09:55:54;;;;;;;60.70;28.60;;;-1.10;19.30;;;0.92;78.59;99595.44;5006280;28;129718;-71
2022/01/25 09:58:24;;;;;;;57.53;28.33;;;-1.00;18.30;;;1.03;77.96;99591.88;5024545;28;118626;-70
2022/01/25 10:00:57;;;;;;;54.67;27.73;;;-0.90;18.50;;;0.90;77.96;99593.03;5022965;28;116080;-70
2022/01/25 10:03:30;;;;;;;62.10;30.48;;;-1.00;15.50;;;1.01;78.30;99581.44;5023280;28;130128;-71
2022/01/25 10:06:01;;;;;;;60.63;28.10;;;-0.90;15.90;;;1.17;77.92;99577.09;5023429;28;129617;-70
2022/01/25 10:08:33;;;;;;;61.33;29.85;;;-0.80;17.60;;;1.09;78.64;99590.88;5022094;27;118878;-70
2022/01/25 10:11:03;;;;;;;65.20;29.92;;;-0.80;18.70;;;1.15;78.52;99589.09;5025420;28;115785;-69
2022/01/25 10:13:36;;;;;;;70.75;28.73;;;-0.80;17.70;;;1.08;78.84;99574.03;5025770;28;129949;-70
2022/01/25 10:16:09;;;;;;;63.50;29.88;;;-0.90;20.30;;;1.21;78.92;99567.50;5026709;28;129663;-70
2022/01/25 10:18:44;;;;;;;61.40;29.25;;;-0.80;21.60;;;1.23;79.13;99567.25;5024384;28;119369;-70
2022/01/25 10:21:18;;;;;;;57.30;27.38;;;-0.70;21.00;;;1.29;79.25;99552.09;5026494;28;114780;-70
2022/01/25 10:24:08;;;;;;;60.95;28.98;;;-0.70;24.30;;;1.38;78.93;99554.09;5024096;28;130054;-70
2022/01/25 10:26:40;;;;;;;59.45;30.48;;;-0.60;22.50;;;1.55;78.48;99558.56;5027123;28;130461;-71
2022/01/25 10:29:11;;;;;;;60.97;29.70;;;-0.60;21.10;;;1.72;77.47;99550.47;5026220;28;118655;-70
2022/01/25 10:31:44;;;;;;;58.42;29.70;;;-0.50;20.80;;;1.59;77.65;99552.47;5025191;28;115904;-70
2022/01/25 10:34:15;;;;;;;61.42;31.50;;;-0.50;17.50;;;1.71;78.03;99544.28;5023769;28;130227;-70
2022/01/25 10:36:46;;;;;;;61.28;30.45;;;-0.50;21.10;;;1.86;77.91;99540.97;5025979;28;130037;-70
2022/01/25 10:39:21;;;;;;;66.82;32.75;;;-0.50;24.80;;;1.95;77.40;99533.31;5026215;28;118667;-70
2022/01/25 10:41:49;;;;;;;60.92;31.00;;;-0.40;22.00;;;2.33;77.12;99534.16;5023402;28;116329;-71
2022/01/25 10:44:19;;;;;;;63.15;32.38;;;-0.10;26.10;;;2.57;75.54;99528.41;5024671;28;130007;-70
2022/01/25 10:46:49;;;;;;;60.60;31.25;;;0.10;19.60;;;2.54;74.64;99523.56;5023534;28;129640;-71
2022/01/25 10:49:17;;;;;;;59.35;31.63;;;0.00;11.40;;;2.46;74.92;99519.50;5026111;28;119345;-70
2022/01/25 10:51:49;;;;;;;57.60;30.88;;;-0.10;12.70;;;2.17;75.09;99517.16;5026877;28;116233;-70
2022/01/25 10:54:25;;;;;;;61.53;32.53;;;-0.20;12.40;;;2.13;75.92;99516.84;5025488;28;128832;-70
2022/01/25 10:56:57;;;;;;;61.72;30.25;;;-0.40;18.40;;;2.27;76.30;99514.53;5023551;28;129650;-70
2022/01/25 10:59:29;;;;;;;59.20;30.67;;;-0.20;22.70;;;1.88;76.37;99516.63;5025594;28;119024;-70
2022/01/25 11:02:00;;;;;;;54.53;30.55;;;-0.20;14.50;;;2.03;77.52;99502.59;5025325;28;115490;-69
2022/01/25 11:04:34;;;;;;;58.75;30.98;;;-0.30;21.20;;;2.30;76.62;99497.16;5026647;28;130432;-70
2022/01/25 11:07:05;;;;;;;58.72;31.10;;;-0.10;18.70;;;2.66;76.13;99500.09;5024047;28;129610;-70
2022/01/25 11:09:38;;;;;;;59.45;31.05;;;0.10;20.60;;;2.84;75.00;99502.34;5008967;28;118788;-71
2022/01/25 11:12:12;;;;;;;61.22;29.80;;;0.20;20.60;;;2.74;74.76;99498.78;5025562;28;116256;-71
2022/01/25 11:14:53;;;;;;;72.03;34.55;;;0.20;14.20;;;2.70;75.10;99495.81;5023055;28;129882;-70
2022/01/25 11:17:23;;;;;;;62.28;30.50;;;0.30;15.80;;;2.65;75.62;99493.09;5023672;28;129608;-71
2022/01/25 11:19:53;;;;;;;63.13;31.38;;;0.30;16.00;;;2.65;75.60;99493.94;5008916;27;118355;-71
2022/01/25 11:22:23;;;;;;;63.60;31.13;;;0.20;12.90;;;2.63;75.21;99492.56;5023841;28;116203;-70
2022/01/25 11:24:53;;;;;;;59.28;30.98;;;0.20;15.20;;;2.73;75.87;99489.94;5024892;28;129710;-70